Home   Weather   France   Toulon   Past weeks
Flag for France

Past Weather in Toulon, Var, France — Yesterday and Last 2 Weeks

Currently: 64 °F. Clear. (Weather station: Hyeres Airport, France). See more current weather

Past Weather in Toulon — Graph

°F

Toulon Temperature Yesterday

Maximum temperature yesterday: 72 °F (at 10:30 am)
Minimum temperature yesterday: 63 °F (at 2:00 am)
Average temperature yesterday: 67 °F

High & Low Weather Summary for the Past Weeks

 TemperatureHumidityPressure
High75 °F (May 11, 1:30 pm)100% (May 16, 5:00 am)30.09 "Hg (May 16, 5:00 am)
Low50 °F (May 17, 5:00 am)47% (May 9, 11:30 am)29.68 "Hg (May 15, 5:00 am)
Average64 °F74%29.90 "Hg
* Reported May 8 2:00 am — May 23 2:00 am, Toulon. Weather by CustomWeather, © 2024

Note: Actual official high and low records may vary slightly from our data, if they occured in-between our weather recording intervals... More about our weather records

Toulon Weather History for the Previous 24 Hours

Scroll right to see more
 ConditionsComfort  
Time TempWeatherWind HumidityBarometerVisibility
2:00 am
Thu, May 23
64 °FPassing clouds.12 mph68%29.98 "HgN/A
1:30 am64 °FClear.13 mph68%29.98 "Hg10 mi
1:00 am64 °FPassing clouds.14 mph68%29.98 "HgN/A
12:00 am64 °FPassing clouds.16 mph73%29.98 "HgN/A
11:30 pm
Wed, May 22
64 °FClear.18 mph68%29.98 "Hg10 mi
11:00 pm66 °FClear.18 mph64%29.98 "Hg10 mi
10:30 pm66 °FPassing clouds.15 mph64%29.98 "HgN/A
10:00 pm64 °FPassing clouds.13 mph68%29.95 "HgN/A
9:30 pm64 °FPassing clouds.13 mph68%29.95 "HgN/A
9:00 pm66 °FPassing clouds.17 mph60%29.95 "HgN/A
8:30 pm66 °FPassing clouds.16 mph60%29.92 "HgN/A
8:00 pm66 °FSunny.15 mph60%29.92 "Hg10 mi
7:00 pm68 °FSunny.17 mph53%29.92 "Hg10 mi
6:30 pm70 °FClear.17 mph50%29.92 "Hg4 mi
6:00 pm70 °FClear.18 mph50%29.92 "Hg4 mi
5:30 pm72 °FClear.21 mph50%29.92 "Hg4 mi
5:00 pm72 °FClear.17 mph50%29.92 "Hg4 mi
4:30 pm72 °FClear.16 mph50%29.92 "Hg4 mi
4:00 pm70 °FClear.21 mph57%29.92 "Hg4 mi
3:00 pm70 °FClear.24 mph57%29.95 "Hg4 mi
2:30 pm70 °FClear.24 mph60%29.92 "Hg4 mi
2:00 pm70 °FClear.28 mph60%29.92 "Hg5 mi
1:30 pm72 °FClear.24 mph53%29.92 "Hg5 mi
1:00 pm72 °FClear.22 mph53%29.92 "Hg6 mi
12:30 pm72 °FClear.23 mph57%29.92 "Hg6 mi
12:00 pm70 °FSunny.23 mph60%29.92 "Hg10 mi
11:30 am72 °FSunny.17 mph53%29.92 "Hg10 mi
11:00 am72 °FSunny.12 mph50%29.92 "Hg10 mi
10:30 am72 °FPassing clouds.16 mph50%29.92 "HgN/A
10:00 am70 °FSunny.14 mph50%29.92 "Hg10 mi
9:00 am68 °FSunny.10 mph53%29.89 "Hg10 mi
8:30 am68 °FSunny.12 mph53%29.89 "Hg10 mi
8:00 am64 °FPassing clouds.9 mph60%29.89 "HgN/A
7:00 am64 °FSunny.10 mph56%29.89 "Hg10 mi
6:30 am63 °FSunny.8 mph59%29.86 "Hg10 mi
6:00 am63 °FClear.9 mph56%29.86 "Hg10 mi
5:30 am63 °FClear.10 mph59%29.86 "Hg10 mi
5:00 am63 °FClear.12 mph59%29.86 "Hg10 mi
4:30 am64 °FClear.12 mph56%29.86 "Hg10 mi
4:00 am63 °FClear.9 mph64%29.86 "Hg10 mi
3:30 am63 °FClear.7 mph64%29.86 "Hg10 mi
Weather by CustomWeather, © 2024

See weather overview